Time;durP1;ratioP1;P1;durP2;ratioP2;P2;SDS_P1;SDS_P2;PMS_P1;PMS_P2;Temp;Humidity;BMP_temperature;BMP_pressure;BME280_temperature;BME280_humidity;BME280_pressure;Samples;Min_cycle;Max_cycle;Signal;HPM_P1;HPM_P2
2023/04/06 00:00:07;;;;;;;;;;;;;;;;;;2064075;28;19984;-91
2023/04/06 00:01:08;;;;;;;;;;;;;;;;;;2051090;28;19952;-90
2023/04/06 00:02:08;;;;;;;;;;;;;;;;;;2064802;28;20012;-90
2023/04/06 00:03:08;;;;;;;;;;;;;;;;;;2064271;28;19913;-89
2023/04/06 00:04:09;;;;;;;;;;;;;;;;;;2056139;28;20420;-89
2023/04/06 00:05:09;;;;;;;;;;;;;;;;;;2063729;28;19921;-90
2023/04/06 00:06:10;;;;;;;;;;;;;;;;;;2063876;28;20290;-90
2023/04/06 00:07:10;;;;;;;;;;;;;;;;;;2055584;28;19914;-88
2023/04/06 00:08:11;;;;;;;;;;;;;;;;;;2056038;28;20073;-89
2023/04/06 00:09:11;;;;;;;;;;;;;;;;;;2071613;28;20361;-90
2023/04/06 00:10:11;;;;;;;;;;;;;;;;;;2071586;28;19925;-89
2023/04/06 00:11:11;;;;;;;;;;;;;;;;;;2063791;28;20345;-91
2023/04/06 00:12:12;;;;;;;;;;;;;;;;;;2054928;28;19922;-89
2023/04/06 00:13:12;;;;;;;;;;;;;;;;;;2063491;28;20440;-90
2023/04/06 00:14:13;;;;;;;;;;;;;;;;;;2055556;28;19914;-89
2023/04/06 00:15:13;;;;;;;;;;;;;;;;;;2063468;28;20048;-90
2023/04/06 00:16:14;;;;;;;;;;;;;;;;;;2063583;28;19945;-91
2023/04/06 00:17:14;;;;;;;;;;;;;;;;;;2056039;28;19914;-89
2023/04/06 00:18:15;;;;;;;;;;;;;;;;;;2056088;28;19929;-88
2023/04/06 00:19:15;;;;;;;;;;;;;;;;;;2064009;28;19917;-89
2023/04/06 00:20:15;;;;;;;;;;;;;;;;;;2064115;28;19944;-89
2023/04/06 00:21:16;;;;;;;;;;;;;;;;;;2063734;28;20462;-90
2023/04/06 00:22:17;;;;;;;;;;;;;;;;;;2057560;28;19914;-89
2023/04/06 00:23:18;;;;;;;;;;;;;;;;;;2066074;28;20007;-90
2023/04/06 00:24:18;;;;;;;;;;;;;;;;;;2069939;28;19988;-90
2023/04/06 00:25:18;;;;;;;;;;;;;;;;;;2065911;28;19920;-89
2023/04/06 00:26:18;;;;;;;;;;;;;;;;;;2057304;28;20487;-90
2023/04/06 00:27:19;;;;;;;;;;;;;;;;;;2063265;28;20284;-90
2023/04/06 00:28:25;;;;;;;;;;;;;;;;;;2071424;28;20111;-89
2023/04/06 00:29:25;;;;;;;;;;;;;;;;;;2070750;28;19917;-90
2023/04/06 00:30:25;;;;;;;;;;;;;;;;;;2063287;28;20466;-90
2023/04/06 00:31:25;;;;;;;;;;;;;;;;;;2055226;28;19921;-89
2023/04/06 00:32:26;;;;;;;;;;;;;;;;;;2063074;28;20339;-89
2023/04/06 00:33:26;;;;;;;;;;;;;;;;;;2055165;28;19922;-89
2023/04/06 00:34:26;;;;;;;;;;;;;;;;;;2055110;28;19981;-90
2023/04/06 00:35:27;;;;;;;;;;;;;;;;;;2071049;28;20309;-89
2023/04/06 00:36:27;;;;;;;;;;;;;;;;;;2071316;28;19913;-90
2023/04/06 00:37:27;;;;;;;;;;;;;;;;;;2063237;28;20388;-90
2023/04/06 00:38:27;;;;;;;;;;;;;;;;;;2063006;28;19920;-90
2023/04/06 00:39:28;;;;;;;;;;;;;;;;;;2055149;28;19973;-90
2023/04/06 00:40:28;;;;;;;;;;;;;;;;;;2055066;28;20377;-90
2023/04/06 00:41:28;;;;;;;;;;;;;;;;;;2063918;28;19941;-89
2023/04/06 00:42:29;;;;;;;;;;;;;;;;;;2066835;28;20017;-89
2023/04/06 00:43:29;;;;;;;;;;;;;;;;;;2072128;28;19921;-90
2023/04/06 00:44:31;;;;;;;;;;;;;;;;;;2065286;28;19922;-89
2023/04/06 00:45:32;;;;;;;;;;;;;;;;;;2065113;28;19949;-90
2023/04/06 00:46:32;;;;;;;;;;;;;;;;;;2067505;28;19984;-90
2023/04/06 00:47:33;;;;;;;;;;;;;;;;;;2066202;28;19920;-90
2023/04/06 00:48:33;;;;;;;;;;;;;;;;;;2059567;28;20056;-90
2023/04/06 00:49:34;;;;;;;;;;;;;;;;;;2065292;28;19914;-90
2023/04/06 00:50:35;;;;;;;;;;;;;;;;;;2056246;28;19914;-90
2023/04/06 00:51:35;;;;;;;;;;;;;;;;;;2056047;28;20033;-90
2023/04/06 00:52:35;;;;;;;;;;;;;;;;;;2063575;28;20004;-90
2023/04/06 00:53:35;;;;;;;;;;;;;;;;;;2055604;28;19981;-90
2023/04/06 00:54:36;;;;;;;;;;;;;;;;;;2055911;28;20298;-90
2023/04/06 00:55:36;;;;;;;;;;;;;;;;;;2055277;28;19954;-89
2023/04/06 00:56:36;;;;;;;;;;;;;;;;;;2055354;28;19922;-90
2023/04/06 00:57:37;;;;;;;;;;;;;;;;;;2063050;28;19925;-90
2023/04/06 00:58:38;;;;;;;;;;;;;;;;;;2062703;28;20328;-90
2023/04/06 00:59:39;;;;;;;;;;;;;;;;;;2063165;28;20428;-90
2023/04/06 01:00:39;;;;;;;;;;;;;;;;;;2054976;28;19920;-89
2023/04/06 01:01:40;;;;;;;;;;;;;;;;;;2063187;28;19976;-89
2023/04/06 01:02:40;;;;;;;;;;;;;;;;;;2063112;28;19918;-89
2023/04/06 01:03:42;;;;;;;;;;;;;;;;;;2063856;28;20270;-91
2023/04/06 01:04:42;;;;;;;;;;;;;;;;;;2063343;28;20293;-90
2023/04/06 01:05:43;;;;;;;;;;;;;;;;;;2062827;28;19974;-90
2023/04/06 01:06:44;;;;;;;;;;;;;;;;;;2054870;28;19921;-89
2023/04/06 01:07:45;;;;;;;;;;;;;;;;;;2057394;28;19949;-95
2023/04/06 01:08:52;;;;;;;;;;;;;;;;;;2069756;28;19929;-95
2023/04/06 01:09:56;;;;;;;;;;;;;;;;;;2069350;28;19929;-96
2023/04/06 01:11:00;;;;;;;;;;;;;;;;;;2069971;28;19949;-96
2023/04/06 01:12:05;;;;;;;;;;;;;;;;;;2070431;28;19918;-96
2023/04/06 01:13:05;;;;;;;;;;;;;;;;;;2068189;28;19913;-96
2023/04/06 01:14:09;;;;;;;;;;;;;;;;;;2060795;28;19998;-96
2023/04/06 01:15:15;;;;;;;;;;;;;;;;;;2060907;28;19914;-96
2023/04/06 01:16:16;;;;;;;;;;;;;;;;;;2066615;28;19941;-95
2023/04/06 01:17:16;;;;;;;;;;;;;;;;;;2074848;28;20004;-96
2023/04/06 01:18:17;;;;;;;;;;;;;;;;;;2059275;28;19922;-95
2023/04/06 01:19:18;;;;;;;;;;;;;;;;;;2046889;28;20316;-88
2023/04/06 01:20:18;;;;;;;;;;;;;;;;;;2063042;28;19917;-89
2023/04/06 01:21:18;;;;;;;;;;;;;;;;;;2064492;28;19980;-89
2023/04/06 01:22:19;;;;;;;;;;;;;;;;;;2062748;28;19921;-89
2023/04/06 01:23:19;;;;;;;;;;;;;;;;;;2062894;28;19952;-88
2023/04/06 01:24:20;;;;;;;;;;;;;;;;;;2054677;28;19914;-88
2023/04/06 01:25:21;;;;;;;;;;;;;;;;;;2054720;28;19914;-89
2023/04/06 01:26:21;;;;;;;;;;;;;;;;;;2062798;28;19951;-87
2023/04/06 01:27:21;;;;;;;;;;;;;;;;;;2070923;28;20371;-89
2023/04/06 01:28:22;;;;;;;;;;;;;;;;;;2071018;28;19925;-89
2023/04/06 01:29:22;;;;;;;;;;;;;;;;;;2063553;28;20011;-89
2023/04/06 01:30:23;;;;;;;;;;;;;;;;;;2063563;28;19914;-89
2023/04/06 01:31:24;;;;;;;;;;;;;;;;;;2062976;28;19980;-91
2023/04/06 01:32:25;;;;;;;;;;;;;;;;;;2062998;28;19932;-90
2023/04/06 01:33:25;;;;;;;;;;;;;;;;;;2063013;28;19980;-89
2023/04/06 01:34:25;;;;;;;;;;;;;;;;;;2062836;28;20317;-89
2023/04/06 01:35:27;;;;;;;;;;;;;;;;;;2055139;28;20398;-89
2023/04/06 01:36:27;;;;;;;;;;;;;;;;;;2063612;28;19984;-90
2023/04/06 01:37:31;;;;;;;;;;;;;;;;;;2063607;28;20096;-89
2023/04/06 01:38:32;;;;;;;;;;;;;;;;;;2065242;28;19913;-89
2023/04/06 01:39:32;;;;;;;;;;;;;;;;;;2066448;28;20269;-88
2023/04/06 01:40:32;;;;;;;;;;;;;;;;;;2064948;28;20008;-90
2023/04/06 01:41:33;;;;;;;;;;;;;;;;;;2063367;28;19914;-89
2023/04/06 01:42:33;;;;;;;;;;;;;;;;;;2062871;28;19914;-89
2023/04/06 01:46:00;;;;;;;;;;;;;;;;;;1883020;26;19961;-89
2023/04/06 01:47:01;;;;;;;;;;;;;;;;;;2062957;28;19917;-89
2023/04/06 01:48:01;;;;;;;;;;;;;;;;;;2063354;28;20381;-89
2023/04/06 01:49:01;;;;;;;;;;;;;;;;;;2071267;28;20502;-88
2023/04/06 01:50:05;;;;;;;;;;;;;;;;;;2071134;28;19928;-89
2023/04/06 01:51:05;;;;;;;;;;;;;;;;;;2055091;28;20433;-89
2023/04/06 01:52:06;;;;;;;;;;;;;;;;;;2055166;28;19918;-89
2023/04/06 01:53:06;;;;;;;;;;;;;;;;;;2054747;28;20483;-89
2023/04/06 01:54:06;;;;;;;;;;;;;;;;;;2055028;28;19917;-88
2023/04/06 01:55:07;;;;;;;;;;;;;;;;;;2063911;28;19918;-90
2023/04/06 01:56:07;;;;;;;;;;;;;;;;;;2063351;28;20341;-87
2023/04/06 01:57:07;;;;;;;;;;;;;;;;;;2071233;28;20007;-89
2023/04/06 01:58:07;;;;;;;;;;;;;;;;;;2063309;28;19922;-91
2023/04/06 01:59:08;;;;;;;;;;;;;;;;;;2054984;28;20040;-90
2023/04/06 02:00:08;;;;;;;;;;;;;;;;;;2055101;28;19914;-88
2023/04/06 02:01:09;;;;;;;;;;;;;;;;;;2062862;28;19961;-89
2023/04/06 02:02:09;;;;;;;;;;;;;;;;;;2071127;28;20400;-90
2023/04/06 02:03:10;;;;;;;;;;;;;;;;;;2071210;28;19917;-90
2023/04/06 02:04:10;;;;;;;;;;;;;;;;;;2054852;28;19925;-90
2023/04/06 02:05:11;;;;;;;;;;;;;;;;;;2054844;28;20273;-90
2023/04/06 02:06:11;;;;;;;;;;;;;;;;;;2070712;28;20456;-90
2023/04/06 02:07:11;;;;;;;;;;;;;;;;;;2062740;28;19916;-90
2023/04/06 02:08:11;;;;;;;;;;;;;;;;;;2054912;28;20320;-90
2023/04/06 02:09:12;;;;;;;;;;;;;;;;;;2062972;28;19922;-90
2023/04/06 02:10:13;;;;;;;;;;;;;;;;;;2054682;28;19922;-89
2023/04/06 02:11:13;;;;;;;;;;;;;;;;;;2055828;28;20392;-88
2023/04/06 02:12:15;;;;;;;;;;;;;;;;;;2055985;28;20009;-88
2023/04/06 02:13:15;;;;;;;;;;;;;;;;;;2056196;28;19956;-87
2023/04/06 02:14:15;;;;;;;;;;;;;;;;;;2056168;28;19921;-88
2023/04/06 02:15:15;;;;;;;;;;;;;;;;;;2056025;28;20371;-88
2023/04/06 02:16:16;;;;;;;;;;;;;;;;;;2056002;28;20051;-89
2023/04/06 02:17:16;;;;;;;;;;;;;;;;;;2064058;28;19929;-88
2023/04/06 02:18:18;;;;;;;;;;;;;;;;;;2064209;28;20028;-90
2023/04/06 02:19:18;;;;;;;;;;;;;;;;;;2056353;28;19926;-88
2023/04/06 02:20:18;;;;;;;;;;;;;;;;;;2072389;28;20000;-88
2023/04/06 02:21:20;;;;;;;;;;;;;;;;;;2071885;28;20009;-87
2023/04/06 02:22:20;;;;;;;;;;;;;;;;;;2064357;28;19914;-87
2023/04/06 02:23:20;;;;;;;;;;;;;;;;;;2072020;28;19913;-88
2023/04/06 02:24:20;;;;;;;;;;;;;;;;;;2072237;28;19956;-89
2023/04/06 02:25:21;;;;;;;;;;;;;;;;;;2056609;28;19915;-89
2023/04/06 02:26:21;;;;;;;;;;;;;;;;;;2056425;28;19914;-88
2023/04/06 02:27:21;;;;;;;;;;;;;;;;;;2056127;28;19914;-88
2023/04/06 02:28:22;;;;;;;;;;;;;;;;;;2056349;28;19918;-87
2023/04/06 02:29:22;;;;;;;;;;;;;;;;;;1726037;28;10000250;-87
2023/04/06 02:30:22;;;;;;;;;;;;;;;;;;2063996;28;19925;-87
2023/04/06 02:31:22;;;;;;;;;;;;;;;;;;2056117;28;20799;-87
2023/04/06 02:32:23;;;;;;;;;;;;;;;;;;2056530;28;19914;-85
2023/04/06 02:33:23;;;;;;;;;;;;;;;;;;2068012;28;20142;-86
2023/04/06 02:34:23;;;;;;;;;;;;;;;;;;2064371;28;19914;-87
2023/04/06 02:35:24;;;;;;;;;;;;;;;;;;2064265;28;19914;-87
2023/04/06 02:36:25;;;;;;;;;;;;;;;;;;2064799;28;20012;-87
2023/04/06 02:37:26;;;;;;;;;;;;;;;;;;2072205;28;19992;-87
2023/04/06 02:38:26;;;;;;;;;;;;;;;;;;2072177;28;19924;-87
2023/04/06 02:39:26;;;;;;;;;;;;;;;;;;2065149;28;19914;-90
2023/04/06 02:40:27;;;;;;;;;;;;;;;;;;2064104;28;20077;-89
2023/04/06 02:41:27;;;;;;;;;;;;;;;;;;2064305;28;19921;-89
2023/04/06 02:42:27;;;;;;;;;;;;;;;;;;2064829;28;20025;-88
2023/04/06 02:43:28;;;;;;;;;;;;;;;;;;2065029;28;19918;-89
2023/04/06 02:44:28;;;;;;;;;;;;;;;;;;2064886;28;19937;-89
2023/04/06 02:45:28;;;;;;;;;;;;;;;;;;2064803;28;19949;-90
2023/04/06 02:46:28;;;;;;;;;;;;;;;;;;2063983;28;19933;-90
2023/04/06 02:47:29;;;;;;;;;;;;;;;;;;2072086;28;20385;-89
2023/04/06 02:48:29;;;;;;;;;;;;;;;;;;2072321;28;20197;-89
2023/04/06 02:49:29;;;;;;;;;;;;;;;;;;2064065;28;19995;-89
2023/04/06 02:50:30;;;;;;;;;;;;;;;;;;2064109;28;20464;-90
2023/04/06 02:51:30;;;;;;;;;;;;;;;;;;2064528;28;19914;-90
2023/04/06 02:52:30;;;;;;;;;;;;;;;;;;2071955;28;19914;-88
2023/04/06 02:53:31;;;;;;;;;;;;;;;;;;2063979;28;20473;-88
2023/04/06 02:54:31;;;;;;;;;;;;;;;;;;2056102;28;19914;-88
2023/04/06 02:55:31;;;;;;;;;;;;;;;;;;2063873;28;19920;-90
2023/04/06 02:56:31;;;;;;;;;;;;;;;;;;2063499;28;19953;-90
2023/04/06 02:57:32;;;;;;;;;;;;;;;;;;2063888;28;19917;-89
2023/04/06 02:58:32;;;;;;;;;;;;;;;;;;2056310;28;20316;-88
2023/04/06 02:59:32;;;;;;;;;;;;;;;;;;2058600;28;19918;-88
2023/04/06 03:00:33;;;;;;;;;;;;;;;;;;2060316;28;19954;-89
2023/04/06 03:01:33;;;;;;;;;;;;;;;;;;2060476;28;19918;-89
2023/04/06 03:02:33;;;;;;;;;;;;;;;;;;2062513;28;19914;-89
2023/04/06 03:03:34;;;;;;;;;;;;;;;;;;2066078;28;19930;-89
2023/04/06 03:04:34;;;;;;;;;;;;;;;;;;2066629;28;19933;-88
2023/04/06 03:05:34;;;;;;;;;;;;;;;;;;2082496;28;19927;-89
2023/04/06 03:06:35;;;;;;;;;;;;;;;;;;2074506;28;19926;-89
2023/04/06 03:07:35;;;;;;;;;;;;;;;;;;2063541;28;19926;-89
2023/04/06 03:08:35;;;;;;;;;;;;;;;;;;2056968;28;20406;-89
2023/04/06 03:09:37;;;;;;;;;;;;;;;;;;2065233;28;20076;-90
2023/04/06 03:10:37;;;;;;;;;;;;;;;;;;2075674;28;19913;-88
2023/04/06 03:11:37;;;;;;;;;;;;;;;;;;2064731;28;20365;-89
2023/04/06 03:12:38;;;;;;;;;;;;;;;;;;2077953;28;19909;-88
2023/04/06 03:13:38;;;;;;;;;;;;;;;;;;2082741;28;19980;-88
2023/04/06 03:14:38;;;;;;;;;;;;;;;;;;2066360;28;19941;-88
2023/04/06 03:15:39;;;;;;;;;;;;;;;;;;2064501;28;19961;-88
2023/04/06 03:16:39;;;;;;;;;;;;;;;;;;2058674;28;20301;-87
2023/04/06 03:17:40;;;;;;;;;;;;;;;;;;2057995;28;20321;-88
2023/04/06 03:18:41;;;;;;;;;;;;;;;;;;2064445;28;20458;-88
2023/04/06 03:19:41;;;;;;;;;;;;;;;;;;2064082;28;19997;-88
2023/04/06 03:20:42;;;;;;;;;;;;;;;;;;2064704;28;20549;-90
2023/04/06 03:21:42;;;;;;;;;;;;;;;;;;2063720;28;20308;-89
2023/04/06 03:22:42;;;;;;;;;;;;;;;;;;2064435;28;19922;-86
2023/04/06 03:23:43;;;;;;;;;;;;;;;;;;2071642;28;19922;-89
2023/04/06 03:24:43;;;;;;;;;;;;;;;;;;2071736;28;20427;-88
2023/04/06 03:25:43;;;;;;;;;;;;;;;;;;2063576;28;19914;-87
2023/04/06 03:26:44;;;;;;;;;;;;;;;;;;2066881;28;19953;-88
2023/04/06 03:27:44;;;;;;;;;;;;;;;;;;2064058;28;19969;-89
2023/04/06 03:28:44;;;;;;;;;;;;;;;;;;2064064;28;19922;-89
2023/04/06 03:29:45;;;;;;;;;;;;;;;;;;2071735;28;19966;-89
2023/04/06 03:30:46;;;;;;;;;;;;;;;;;;2063766;28;20393;-89
2023/04/06 03:31:46;;;;;;;;;;;;;;;;;;2063665;28;20091;-89
2023/04/06 03:32:46;;;;;;;;;;;;;;;;;;2063833;28;19953;-88
2023/04/06 03:33:46;;;;;;;;;;;;;;;;;;2060096;28;19980;-88
2023/04/06 03:34:47;;;;;;;;;;;;;;;;;;2066529;28;19914;-88
2023/04/06 03:35:47;;;;;;;;;;;;;;;;;;2066023;28;19922;-88
2023/04/06 03:36:47;;;;;;;;;;;;;;;;;;2065440;28;19957;-88
2023/04/06 03:37:47;;;;;;;;;;;;;;;;;;2060351;28;19914;-88
2023/04/06 03:38:48;;;;;;;;;;;;;;;;;;2056607;29;19910;-88
2023/04/06 03:39:48;;;;;;;;;;;;;;;;;;2059825;28;20397;-88
2023/04/06 03:40:48;;;;;;;;;;;;;;;;;;2064600;28;19913;-88
2023/04/06 03:41:49;;;;;;;;;;;;;;;;;;2071838;28;20341;-88
2023/04/06 03:42:49;;;;;;;;;;;;;;;;;;2071872;28;19960;-88
2023/04/06 03:43:50;;;;;;;;;;;;;;;;;;2064468;28;19925;-90
2023/04/06 03:44:50;;;;;;;;;;;;;;;;;;2063374;28;19925;-88
2023/04/06 03:45:51;;;;;;;;;;;;;;;;;;2063534;28;19933;-87
2023/04/06 03:46:51;;;;;;;;;;;;;;;;;;2055146;28;20492;-87
2023/04/06 03:47:51;;;;;;;;;;;;;;;;;;2055397;28;19956;-91
2023/04/06 03:48:52;;;;;;;;;;;;;;;;;;2055490;28;19913;-87
2023/04/06 03:49:52;;;;;;;;;;;;;;;;;;2064181;28;19928;-87
2023/04/06 03:50:53;;;;;;;;;;;;;;;;;;2064750;28;20326;-90
2023/04/06 03:51:53;;;;;;;;;;;;;;;;;;2064919;28;19921;-89
2023/04/06 03:52:53;;;;;;;;;;;;;;;;;;2063559;28;19976;-88
2023/04/06 03:53:53;;;;;;;;;;;;;;;;;;2063816;28;19929;-89
2023/04/06 03:54:54;;;;;;;;;;;;;;;;;;2071715;28;19943;-89
2023/04/06 03:55:55;;;;;;;;;;;;;;;;;;2071215;28;20000;-88
2023/04/06 03:56:55;;;;;;;;;;;;;;;;;;2055465;28;19918;-89
2023/04/06 03:57:56;;;;;;;;;;;;;;;;;;2055743;28;19910;-88
2023/04/06 03:58:56;;;;;;;;;;;;;;;;;;2065470;28;20023;-89
2023/04/06 03:59:56;;;;;;;;;;;;;;;;;;2064174;28;19925;-87
2023/04/06 04:00:56;;;;;;;;;;;;;;;;;;2071430;28;19913;-88
2023/04/06 04:01:57;;;;;;;;;;;;;;;;;;2071527;28;20379;-88
2023/04/06 04:02:57;;;;;;;;;;;;;;;;;;2055141;28;19985;-89
2023/04/06 04:03:57;;;;;;;;;;;;;;;;;;2055085;28;20004;-87
2023/04/06 04:04:57;;;;;;;;;;;;;;;;;;2055349;28;19945;-88
2023/04/06 04:05:58;;;;;;;;;;;;;;;;;;2047315;28;19914;-87
2023/04/06 04:07:00;;;;;;;;;;;;;;;;;;2055155;28;19920;-88
2023/04/06 04:08:00;;;;;;;;;;;;;;;;;;2063640;28;19958;-87
2023/04/06 04:09:00;;;;;;;;;;;;;;;;;;2071329;28;20238;-88
2023/04/06 04:10:00;;;;;;;;;;;;;;;;;;2071490;28;20413;-87
2023/04/06 04:11:01;;;;;;;;;;;;;;;;;;2055275;28;19918;-87
2023/04/06 04:12:01;;;;;;;;;;;;;;;;;;2055339;28;19996;-88
2023/04/06 04:13:01;;;;;;;;;;;;;;;;;;2055336;28;19985;-87
2023/04/06 04:14:02;;;;;;;;;;;;;;;;;;2063165;28;19957;-89
2023/04/06 04:15:02;;;;;;;;;;;;;;;;;;2071971;28;19932;-86
2023/04/06 04:16:03;;;;;;;;;;;;;;;;;;2055684;28;19961;-90
2023/04/06 04:17:03;;;;;;;;;;;;;;;;;;2063250;28;19971;-88
2023/04/06 04:18:03;;;;;;;;;;;;;;;;;;2072090;28;20402;-88
2023/04/06 04:19:04;;;;;;;;;;;;;;;;;;2055625;28;19917;-88
2023/04/06 04:20:04;;;;;;;;;;;;;;;;;;2060175;28;19989;-88
2023/04/06 04:21:05;;;;;;;;;;;;;;;;;;2064547;28;19913;-90
2023/04/06 04:22:06;;;;;;;;;;;;;;;;;;2064216;28;19956;-87
2023/04/06 04:23:06;;;;;;;;;;;;;;;;;;2056482;28;20325;-88
2023/04/06 04:24:06;;;;;;;;;;;;;;;;;;2055793;28;20037;-90
2023/04/06 04:25:09;;;;;;;;;;;;;;;;;;2055361;28;20429;-89
2023/04/06 04:26:10;;;;;;;;;;;;;;;;;;1701152;28;10341405;-89
2023/04/06 04:27:10;;;;;;;;;;;;;;;;;;2063671;28;20408;-89
2023/04/06 04:28:10;;;;;;;;;;;;;;;;;;2063469;28;20455;-89
2023/04/06 04:29:10;;;;;;;;;;;;;;;;;;2064093;28;19924;-88
2023/04/06 04:30:12;;;;;;;;;;;;;;;;;;2064369;28;19937;-89
2023/04/06 04:31:12;;;;;;;;;;;;;;;;;;2064253;28;20433;-88
2023/04/06 04:32:12;;;;;;;;;;;;;;;;;;2071608;28;19929;-89
2023/04/06 04:33:13;;;;;;;;;;;;;;;;;;2063267;28;19914;-88
2023/04/06 04:34:14;;;;;;;;;;;;;;;;;;2055118;28;20364;-88
2023/04/06 04:35:15;;;;;;;;;;;;;;;;;;2064511;28;19914;-87
2023/04/06 04:36:15;;;;;;;;;;;;;;;;;;2064336;28;19913;-88
2023/04/06 04:37:16;;;;;;;;;;;;;;;;;;2063537;28;19918;-87
2023/04/06 04:38:16;;;;;;;;;;;;;;;;;;2072066;28;19918;-88
2023/04/06 04:39:16;;;;;;;;;;;;;;;;;;2063623;28;19976;-87
2023/04/06 04:40:17;;;;;;;;;;;;;;;;;;2047277;28;19923;-88
2023/04/06 04:41:17;;;;;;;;;;;;;;;;;;2048106;29;19922;-88
2023/04/06 04:42:17;;;;;;;;;;;;;;;;;;2056116;28;19962;-90
2023/04/06 04:43:18;;;;;;;;;;;;;;;;;;2064775;28;19913;-90
2023/04/06 04:44:18;;;;;;;;;;;;;;;;;;2064044;28;19917;-91
2023/04/06 04:45:18;;;;;;;;;;;;;;;;;;2071664;28;19921;-89
2023/04/06 04:46:19;;;;;;;;;;;;;;;;;;2072502;28;20293;-89
2023/04/06 04:47:19;;;;;;;;;;;;;;;;;;2064586;28;19914;-87
2023/04/06 04:48:19;;;;;;;;;;;;;;;;;;2064765;28;19937;-89
2023/04/06 04:49:19;;;;;;;;;;;;;;;;;;2063242;28;19997;-90
2023/04/06 04:50:20;;;;;;;;;;;;;;;;;;2071415;28;19914;-90
2023/04/06 04:51:20;;;;;;;;;;;;;;;;;;2071571;28;20011;-89
2023/04/06 04:52:24;;;;;;;;;;;;;;;;;;2055866;28;19925;-89
2023/04/06 04:53:25;;;;;;;;;;;;;;;;;;2063474;28;19914;-93
2023/04/06 04:54:26;;;;;;;;;;;;;;;;;;2070134;28;20005;-95
2023/04/06 04:55:29;;;;;;;;;;;;;;;;;;2077256;28;19906;-95
2023/04/06 04:56:29;;;;;;;;;;;;;;;;;;2071298;28;19914;-90
2023/04/06 04:57:30;;;;;;;;;;;;;;;;;;2071538;28;19928;-90
2023/04/06 04:58:30;;;;;;;;;;;;;;;;;;2064134;28;19957;-89
2023/04/06 04:59:30;;;;;;;;;;;;;;;;;;2055429;28;19914;-90
2023/04/06 05:00:31;;;;;;;;;;;;;;;;;;2055570;28;19920;-90
2023/04/06 05:01:31;;;;;;;;;;;;;;;;;;2063300;28;19913;-89
2023/04/06 05:02:32;;;;;;;;;;;;;;;;;;2071422;28;19914;-87
2023/04/06 05:03:32;;;;;;;;;;;;;;;;;;2063284;28;19968;-90
2023/04/06 05:04:32;;;;;;;;;;;;;;;;;;2063814;28;20521;-91
2023/04/06 05:05:32;;;;;;;;;;;;;;;;;;2071464;28;19937;-89
2023/04/06 05:06:33;;;;;;;;;;;;;;;;;;2072227;28;19940;-88
2023/04/06 05:07:33;;;;;;;;;;;;;;;;;;2055669;28;19960;-88
2023/04/06 05:08:34;;;;;;;;;;;;;;;;;;2063840;28;19914;-89
2023/04/06 05:09:34;;;;;;;;;;;;;;;;;;2063142;28;20031;-87
2023/04/06 05:10:35;;;;;;;;;;;;;;;;;;2055441;28;19914;-89
2023/04/06 05:11:36;;;;;;;;;;;;;;;;;;2054912;28;19954;-89
2023/04/06 05:12:37;;;;;;;;;;;;;;;;;;2063920;28;20000;-90
2023/04/06 05:13:38;;;;;;;;;;;;;;;;;;2067372;28;19921;-89
2023/04/06 05:14:39;;;;;;;;;;;;;;;;;;2064108;28;19941;-90
2023/04/06 05:15:40;;;;;;;;;;;;;;;;;;2063343;28;19921;-89
2023/04/06 05:16:40;;;;;;;;;;;;;;;;;;2071309;28;19921;-90
2023/04/06 05:17:40;;;;;;;;;;;;;;;;;;2071316;28;20035;-91
2023/04/06 05:18:40;;;;;;;;;;;;;;;;;;2063416;28;19913;-88
2023/04/06 05:19:41;;;;;;;;;;;;;;;;;;2062993;28;19913;-89
2023/04/06 05:20:42;;;;;;;;;;;;;;;;;;2063202;28;20008;-89
2023/04/06 05:21:42;;;;;;;;;;;;;;;;;;2063178;28;19913;-89
2023/04/06 05:22:42;;;;;;;;;;;;;;;;;;2063025;28;19924;-88
2023/04/06 05:23:43;;;;;;;;;;;;;;;;;;2055501;28;19949;-90
2023/04/06 05:24:43;;;;;;;;;;;;;;;;;;2055093;28;19961;-88
2023/04/06 05:25:44;;;;;;;;;;;;;;;;;;2063632;28;20353;-90
2023/04/06 05:26:46;;;;;;;;;;;;;;;;;;2064036;28;19913;-91
2023/04/06 05:27:48;;;;;;;;;;;;;;;;;;2063842;28;19946;-90
2023/04/06 05:28:49;;;;;;;;;;;;;;;;;;2071236;28;19914;-89
2023/04/06 05:29:49;;;;;;;;;;;;;;;;;;2071451;28;19913;-90
2023/04/06 05:30:50;;;;;;;;;;;;;;;;;;2062997;28;19914;-88
2023/04/06 05:31:51;;;;;;;;;;;;;;;;;;2063009;28;19920;-89
2023/04/06 05:32:51;;;;;;;;;;;;;;;;;;2063663;28;19914;-90
2023/04/06 05:33:52;;;;;;;;;;;;;;;;;;2063147;28;20008;-91
2023/04/06 05:34:52;;;;;;;;;;;;;;;;;;2063108;28;19921;-90
2023/04/06 05:35:52;;;;;;;;;;;;;;;;;;2071110;28;20000;-89
2023/04/06 05:36:53;;;;;;;;;;;;;;;;;;2070886;28;20241;-89
2023/04/06 05:37:53;;;;;;;;;;;;;;;;;;2063949;28;20250;-88
2023/04/06 05:38:55;;;;;;;;;;;;;;;;;;2062895;28;20313;-90
2023/04/06 05:39:55;;;;;;;;;;;;;;;;;;2054971;28;20005;-89
2023/04/06 05:40:55;;;;;;;;;;;;;;;;;;2063175;28;19913;-89
2023/04/06 05:41:56;;;;;;;;;;;;;;;;;;2068068;28;20413;-90
2023/04/06 05:42:57;;;;;;;;;;;;;;;;;;2057684;28;20020;-89
2023/04/06 05:43:57;;;;;;;;;;;;;;;;;;2054552;28;19914;-89
2023/04/06 05:44:57;;;;;;;;;;;;;;;;;;2047249;28;20224;-90
2023/04/06 05:45:58;;;;;;;;;;;;;;;;;;2052691;28;19918;-90
2023/04/06 05:47:07;;;;;;;;;;;;;;;;;;2066212;28;19921;-90
2023/04/06 05:48:07;;;;;;;;;;;;;;;;;;2065045;28;20385;-86
2023/04/06 05:49:07;;;;;;;;;;;;;;;;;;2058863;28;19942;-88
2023/04/06 05:50:08;;;;;;;;;;;;;;;;;;2058768;28;19918;-89
2023/04/06 05:51:08;;;;;;;;;;;;;;;;;;2066036;28;20008;-86
2023/04/06 05:52:08;;;;;;;;;;;;;;;;;;2066002;28;19918;-90
2023/04/06 05:53:09;;;;;;;;;;;;;;;;;;2058787;28;20001;-90
2023/04/06 05:54:21;;;;;;;;;;;;;;;;;;2059019;28;19997;-90
2023/04/06 05:55:22;;;;;;;;;;;;;;;;;;2058821;28;19914;-88
2023/04/06 05:56:23;;;;;;;;;;;;;;;;;;2058700;28;19925;-88
2023/04/06 05:57:26;;;;;;;;;;;;;;;;;;2058050;28;20500;-90
2023/04/06 05:58:32;;;;;;;;;;;;;;;;;;2058433;28;19921;-89
2023/04/06 05:59:35;;;;;;;;;;;;;;;;;;2074081;28;19960;-87
2023/04/06 06:00:35;;;;;;;;;;;;;;;;;;2067169;28;19978;-88
2023/04/06 06:01:35;;;;;;;;;;;;;;;;;;2067212;28;20005;-86
2023/04/06 06:02:43;;;;;;;;;;;;;;;;;;2071680;28;19957;-89
2023/04/06 06:03:43;;;;;;;;;;;;;;;;;;2071617;28;19977;-89
2023/04/06 06:04:43;;;;;;;;;;;;;;;;;;2065025;28;20319;-87
2023/04/06 06:05:44;;;;;;;;;;;;;;;;;;2066679;28;20380;-87
2023/04/06 06:06:44;;;;;;;;;;;;;;;;;;2067581;28;20391;-86
2023/04/06 06:07:45;;;;;;;;;;;;;;;;;;2065893;28;19953;-89
2023/04/06 06:08:45;;;;;;;;;;;;;;;;;;2065815;28;19920;-89
2023/04/06 06:09:45;;;;;;;;;;;;;;;;;;2073611;28;19913;-89
2023/04/06 06:10:46;;;;;;;;;;;;;;;;;;2065018;28;19914;-90
2023/04/06 06:11:46;;;;;;;;;;;;;;;;;;2057287;28;19997;-89
2023/04/06 06:12:46;;;;;;;;;;;;;;;;;;2055925;28;19961;-89
2023/04/06 06:13:47;;;;;;;;;;;;;;;;;;2056868;28;19918;-89
2023/04/06 06:14:47;;;;;;;;;;;;;;;;;;2065357;28;19918;-90
2023/04/06 06:15:47;;;;;;;;;;;;;;;;;;2064354;28;20392;-89
2023/04/06 06:16:48;;;;;;;;;;;;;;;;;;2055603;28;20011;-88
2023/04/06 06:17:48;;;;;;;;;;;;;;;;;;2053079;28;19989;-90
2023/04/06 06:18:48;;;;;;;;;;;;;;;;;;2065358;28;19921;-89
2023/04/06 06:20:00;;;;;;;;;;;;;;;;;;2071432;28;19989;-89
2023/04/06 06:21:09;;;;;;;;;;;;;;;;;;2082381;28;19909;-90
2023/04/06 06:22:09;;;;;;;;;;;;;;;;;;2082472;28;19913;-89
2023/04/06 06:23:12;;;;;;;;;;;;;;;;;;2079711;28;19925;-90
2023/04/06 06:24:12;;;;;;;;;;;;;;;;;;2070757;28;19925;-89
2023/04/06 06:25:13;;;;;;;;;;;;;;;;;;2057710;28;19922;-89
2023/04/06 06:26:13;;;;;;;;;;;;;;;;;;2065795;28;20020;-89
2023/04/06 06:27:13;;;;;;;;;;;;;;;;;;2065500;28;19981;-89
2023/04/06 06:28:14;;;;;;;;;;;;;;;;;;2061660;28;19926;-88
2023/04/06 06:29:15;;;;;;;;;;;;;;;;;;2065138;28;19913;-90
2023/04/06 06:30:15;;;;;;;;;;;;;;;;;;2074620;28;19972;-89
2023/04/06 06:31:16;;;;;;;;;;;;;;;;;;2073863;28;19949;-90
2023/04/06 06:32:17;;;;;;;;;;;;;;;;;;2067240;28;20357;-90
2023/04/06 06:33:17;;;;;;;;;;;;;;;;;;2071022;28;19913;-89
2023/04/06 06:34:18;;;;;;;;;;;;;;;;;;2071124;28;19921;-89
2023/04/06 06:35:18;;;;;;;;;;;;;;;;;;2076588;28;19956;-89
2023/04/06 06:36:18;;;;;;;;;;;;;;;;;;2072158;28;19941;-91
2023/04/06 06:37:19;;;;;;;;;;;;;;;;;;2066264;28;19978;-88
2023/04/06 06:38:20;;;;;;;;;;;;;;;;;;2066045;28;19962;-90
2023/04/06 06:39:20;;;;;;;;;;;;;;;;;;2066315;28;19918;-90
2023/04/06 06:40:23;;;;;;;;;;;;;;;;;;2066721;28;19942;-90
2023/04/06 06:41:24;;;;;;;;;;;;;;;;;;2062545;28;19925;-90
2023/04/06 06:42:25;;;;;;;;;;;;;;;;;;2057823;28;20384;-89
2023/04/06 06:43:26;;;;;;;;;;;;;;;;;;2066662;28;20408;-90
2023/04/06 06:44:26;;;;;;;;;;;;;;;;;;2061988;28;19914;-90
2023/04/06 06:45:29;;;;;;;;;;;;;;;;;;2062427;28;20048;-90
2023/04/06 06:46:29;;;;;;;;;;;;;;;;;;2063986;28;19914;-90
2023/04/06 06:47:29;;;;;;;;;;;;;;;;;;2062849;28;20024;-90
2023/04/06 06:48:30;;;;;;;;;;;;;;;;;;2048654;29;19984;-90
2023/04/06 06:49:30;;;;;;;;;;;;;;;;;;2048838;29;20023;-92
2023/04/06 06:50:31;;;;;;;;;;;;;;;;;;2048581;29;19937;-91
2023/04/06 06:51:31;;;;;;;;;;;;;;;;;;2056810;28;20013;-91
2023/04/06 06:52:31;;;;;;;;;;;;;;;;;;2064661;28;19914;-92
2023/04/06 06:53:31;;;;;;;;;;;;;;;;;;2056833;28;19914;-92
2023/04/06 06:54:32;;;;;;;;;;;;;;;;;;2056697;28;19920;-92
2023/04/06 06:55:32;;;;;;;;;;;;;;;;;;2061915;28;20012;-91
2023/04/06 06:56:32;;;;;;;;;;;;;;;;;;2070011;28;19925;-92